Time;durP1;ratioP1;P1;durP2;ratioP2;P2;SDS_P1;SDS_P2;PMS_P1;PMS_P2;Temp;Humidity;BMP_temperature;BMP_pressure;BME280_temperature;BME280_humidity;BME280_pressure;Samples;Min_cycle;Max_cycle;Signal;HPM_P1;HPM_P2
2022/09/05 00:02:00;;;;;;;4.10;2.10;;;19.50;88.50;;;;;;6211504;23;20563;-86
2022/09/05 00:04:34;;;;;;;4.50;2.10;;;19.50;88.60;;;;;;6158966;23;20012;-88
2022/09/05 00:07:33;;;;;;;4.35;2.00;;;19.40;88.70;;;;;;6159750;23;20024;-86
2022/09/05 00:10:27;;;;;;;2.95;1.77;;;19.40;89.10;;;;;;6160069;23;20138;-86
2022/09/05 00:12:56;;;;;;;3.55;2.00;;;19.30;89.00;;;;;;6184666;23;20021;-87
2022/09/05 00:16:09;;;;;;;4.00;2.30;;;19.30;89.10;;;;;;6211474;23;20040;-87
2022/09/05 00:19:14;;;;;;;3.38;1.83;;;19.20;89.30;;;;;;6189903;23;20013;-86
2022/09/05 00:21:39;;;;;;;3.75;2.17;;;19.10;89.70;;;;;;6184708;23;20062;-85
2022/09/05 00:24:17;;;;;;;4.13;1.88;;;19.10;89.60;;;;;;6159690;22;20021;-87
2022/09/05 00:29:39;;;;;;;2.85;1.67;;;19.00;89.90;;;;;;6224469;22;20025;-85
2022/09/05 00:32:22;;;;;;;3.75;2.00;;;19.00;90.00;;;;;;6129713;23;20530;-86
2022/09/05 00:35:01;;;;;;;4.07;2.00;;;18.90;90.10;;;;;;6129926;23;20454;-86
2022/09/05 00:37:32;;;;;;;4.18;2.35;;;18.80;90.10;;;;;;6155079;22;20060;-86
2022/09/05 00:40:16;;;;;;;4.50;1.83;;;18.80;90.20;;;;;;6129640;23;20438;-88
2022/09/05 00:42:43;;;;;;;3.85;2.05;;;18.70;90.30;;;;;;6129885;23;20039;-88
2022/09/05 00:45:15;;;;;;;3.78;1.92;;;18.70;90.30;;;;;;6130148;23;20013;-86
2022/09/05 00:47:51;;;;;;;3.80;1.95;;;18.70;90.40;;;;;;6130856;23;20052;-86
2022/09/05 00:50:55;;;;;;;4.32;2.15;;;18.60;90.40;;;;;;6199321;22;20028;-86
2022/09/05 00:53:37;;;;;;;4.30;2.13;;;18.50;90.50;;;;;;6154699;23;20021;-86
2022/09/05 00:56:39;;;;;;;3.63;1.92;;;18.50;90.50;;;;;;6130331;23;20017;-86
2022/09/05 00:59:23;;;;;;;3.83;2.10;;;18.50;90.70;;;;;;6154800;23;20028;-86
2022/09/05 01:02:34;;;;;;;3.45;1.90;;;18.40;90.60;;;;;;6155068;23;20048;-85
2022/09/05 01:05:05;;;;;;;3.38;1.77;;;18.40;90.80;;;;;;6097103;23;20096;-86
2022/09/05 01:07:44;;;;;;;3.58;2.13;;;18.30;90.80;;;;;;6130244;23;20028;-86
2022/09/05 01:10:27;;;;;;;4.22;2.05;;;18.30;90.90;;;;;;6155551;22;20049;-87
2022/09/05 01:13:13;;;;;;;3.50;1.88;;;18.20;90.90;;;;;;6181432;22;20082;-88
2022/09/05 01:16:23;;;;;;;2.92;1.70;;;18.20;91.10;;;;;;6130345;23;20148;-87
2022/09/05 01:19:26;;;;;;;4.05;2.05;;;18.20;91.10;;;;;;6148078;23;20013;-86
2022/09/05 01:21:58;;;;;;;5.50;2.40;;;18.10;91.10;;;;;;6155101;23;20013;-87
2022/09/05 01:24:44;;;;;;;3.75;2.33;;;18.10;91.10;;;;;;6130855;23;20021;-90
2022/09/05 01:27:47;;;;;;;4.57;2.30;;;18.10;91.20;;;;;;6131156;23;20024;-91
2022/09/05 01:30:41;;;;;;;4.03;2.58;;;18.00;91.30;;;;;;6268160;22;20098;-89
2022/09/05 01:33:10;;;;;;;4.28;2.28;;;18.00;91.40;;;;;;6254708;22;20026;-88
2022/09/05 01:36:03;;;;;;;4.65;2.50;;;17.90;91.30;;;;;;6280236;22;20053;-87
2022/09/05 01:38:29;;;;;;;4.00;2.33;;;17.90;91.50;;;;;;6307674;22;20054;-88
2022/09/05 01:41:09;;;;;;;4.43;2.40;;;17.80;91.60;;;;;;6307338;22;20015;-86
2022/09/05 01:44:10;;;;;;;4.07;2.10;;;17.80;91.60;;;;;;6280129;22;20015;-87
2022/09/05 01:46:51;;;;;;;3.85;2.20;;;17.70;91.80;;;;;;6239819;22;20019;-88
2022/09/05 01:50:08;;;;;;;4.13;2.28;;;17.70;91.80;;;;;;6229001;23;20018;-90
2022/09/05 01:53:07;;;;;;;6.50;2.20;;;17.70;91.90;;;;;;6199633;22;20454;-87
2022/09/05 01:55:58;;;;;;;4.35;2.28;;;17.70;91.90;;;;;;6227788;23;20018;-90
2022/09/05 01:58:43;;;;;;;3.90;1.90;;;17.60;91.90;;;;;;6212313;22;20018;-87
2022/09/05 02:01:29;;;;;;;4.43;2.35;;;17.60;92.00;;;;;;6228422;22;20013;-88
2022/09/05 02:04:16;;;;;;;3.88;2.22;;;17.60;92.00;;;;;;6166559;22;20093;-88
2022/09/05 02:06:58;;;;;;;4.55;2.00;;;17.60;92.00;;;;;;6230613;22;20320;-88
2022/09/05 02:09:42;;;;;;;4.88;2.35;;;17.60;92.10;;;;;;6152578;23;20021;-89
2022/09/05 02:12:14;;;;;;;4.05;2.05;;;17.60;92.10;;;;;;6255983;22;20346;-90
2022/09/05 02:15:01;;;;;;;3.92;2.15;;;17.60;92.20;;;;;;6282191;22;20022;-91
2022/09/05 02:17:41;;;;;;;5.15;2.30;;;17.60;92.40;;;;;;6256365;22;20015;-91
2022/09/05 02:20:12;;;;;;;4.15;2.28;;;17.60;92.30;;;;;;6282260;22;20015;-89
2022/09/05 02:22:52;;;;;;;4.88;2.20;;;17.50;92.20;;;;;;6257014;22;20463;-90
2022/09/05 02:25:24;;;;;;;4.35;2.35;;;17.50;92.50;;;;;;6258940;22;20142;-86
2022/09/05 02:27:58;;;;;;;4.50;2.40;;;17.40;92.20;;;;;;6291404;22;20011;-88
2022/09/05 02:30:29;;;;;;;3.83;2.08;;;17.40;92.30;;;;;;6135408;23;20025;-90
2022/09/05 02:33:13;;;;;;;3.97;2.03;;;17.30;92.30;;;;;;6131067;23;20104;-88
2022/09/05 02:35:53;;;;;;;4.18;2.30;;;17.30;92.40;;;;;;6131318;23;20084;-89
2022/09/05 02:38:43;;;;;;;4.72;2.25;;;17.20;92.40;;;;;;6198875;22;20062;-87
2022/09/05 02:41:33;;;;;;;4.13;2.33;;;17.20;92.50;;;;;;6131643;23;20442;-87
2022/09/05 02:44:30;;;;;;;4.45;2.45;;;17.10;92.50;;;;;;6182043;23;20024;-88
2022/09/05 02:47:12;;;;;;;4.73;2.37;;;17.20;92.60;;;;;;6180610;23;20021;-88
2022/09/05 02:50:00;;;;;;;4.68;2.35;;;17.10;92.50;;;;;;6156072;22;20255;-88
2022/09/05 02:52:31;;;;;;;4.15;2.10;;;17.10;92.60;;;;;;6156689;22;20031;-87
2022/09/05 02:54:58;;;;;;;4.45;2.60;;;17.00;92.60;;;;;;6155934;23;20056;-86
2022/09/05 02:57:46;;;;;;;3.55;2.05;;;17.00;92.60;;;;;;6155847;23;20025;-92
2022/09/05 03:00:17;;;;;;;4.68;2.47;;;17.00;92.70;;;;;;6231822;22;20110;-89
2022/09/05 03:02:52;;;;;;;6.78;2.35;;;16.90;92.80;;;;;;6133124;23;20017;-89
2022/09/05 03:05:36;;;;;;;5.28;2.28;;;16.90;92.70;;;;;;6140306;23;20077;-86
2022/09/05 03:08:14;;;;;;;4.20;2.40;;;16.80;92.80;;;;;;6160065;23;20066;-88
2022/09/05 03:10:55;;;;;;;4.40;2.40;;;16.80;92.90;;;;;;6156108;22;20021;-88
2022/09/05 03:13:36;;;;;;;4.25;2.38;;;16.80;92.90;;;;;;6197602;22;20021;-89
2022/09/05 03:16:13;;;;;;;4.47;2.42;;;16.80;93.00;;;;;;6155520;23;20017;-87
2022/09/05 03:18:57;;;;;;;4.60;2.35;;;16.70;92.90;;;;;;6155838;22;20028;-88
2022/09/05 03:22:01;;;;;;;4.15;2.50;;;16.70;93.00;;;;;;6195376;22;20047;-88
2022/09/05 03:25:02;;;;;;;4.38;2.47;;;16.60;93.10;;;;;;6130900;23;20052;-88
2022/09/05 03:28:05;;;;;;;4.28;2.40;;;16.50;93.20;;;;;;6155199;23;20029;-88
2022/09/05 03:30:52;;;;;;;5.10;2.90;;;16.50;93.20;;;;;;6155119;23;20028;-88
2022/09/05 03:33:52;;;;;;;4.35;2.35;;;16.40;93.30;;;;;;6130818;23;20057;-88
2022/09/05 03:36:51;;;;;;;4.93;2.92;;;16.40;93.30;;;;;;6155447;22;20028;-88
2022/09/05 03:39:45;;;;;;;4.22;2.47;;;16.30;93.40;;;;;;6155270;23;20055;-87
2022/09/05 03:42:29;;;;;;;5.53;2.88;;;16.20;93.40;;;;;;6130980;23;20021;-87
2022/09/05 03:45:20;;;;;;;5.07;2.80;;;16.20;93.50;;;;;;6155620;23;20013;-92
2022/09/05 03:47:58;;;;;;;4.55;2.60;;;16.20;93.50;;;;;;6131580;23;20021;-88
2022/09/05 03:50:55;;;;;;;4.63;2.72;;;16.10;93.60;;;;;;6130680;23;20027;-88
2022/09/05 03:53:41;;;;;;;4.40;2.63;;;16.10;93.80;;;;;;6197697;22;20054;-89
2022/09/05 03:56:54;;;;;;;4.45;2.60;;;16.10;93.70;;;;;;6155204;22;20058;-88
2022/09/05 04:00:04;;;;;;;5.20;2.60;;;16.10;93.80;;;;;;6173367;23;20017;-88
2022/09/05 04:02:34;;;;;;;4.95;2.47;;;16.10;94.30;;;;;;6154285;23;20049;-88
2022/09/05 04:05:14;;;;;;;5.40;2.60;;;16.10;94.20;;;;;;6180184;23;20079;-87
2022/09/05 04:07:45;;;;;;;4.38;2.47;;;16.20;94.30;;;;;;6155345;23;20013;-88
2022/09/05 04:10:33;;;;;;;4.47;2.53;;;16.20;94.00;;;;;;6232464;22;20342;-90
2022/09/05 04:13:03;;;;;;;4.65;2.53;;;16.10;94.00;;;;;;6129194;23;20379;-88
2022/09/05 04:15:37;;;;;;;5.57;2.78;;;16.10;94.00;;;;;;6130700;23;20013;-88
2022/09/05 04:18:17;;;;;;;4.88;2.53;;;16.00;94.10;;;;;;6155647;22;20021;-87
2022/09/05 04:21:01;;;;;;;4.72;2.63;;;16.00;94.10;;;;;;6155562;22;20018;-88
2022/09/05 04:23:59;;;;;;;4.38;2.65;;;15.90;94.20;;;;;;6131450;23;20065;-86
2022/09/05 04:26:43;;;;;;;;;;;15.90;94.40;;;;;;6130752;23;20021;-90
2022/09/05 04:29:13;;;;;;;4.85;2.67;;;15.90;94.70;;;;;;6181095;23;19922;-87
2022/09/05 04:31:55;;;;;;;4.70;2.65;;;15.90;94.40;;;;;;6130503;23;20381;-89
2022/09/05 04:34:54;;;;;;;4.85;2.53;;;15.90;94.40;;;;;;6155240;23;20021;-88
2022/09/05 04:37:32;;;;;;;5.10;2.92;;;15.90;94.50;;;;;;6155252;23;20130;-91
2022/09/05 04:40:38;;;;;;;5.30;2.70;;;15.80;94.60;;;;;;6154696;23;20060;-87
2022/09/05 04:43:09;;;;;;;3.72;2.38;;;15.80;94.60;;;;;;6155276;23;20028;-90
2022/09/05 04:46:12;;;;;;;4.78;2.67;;;15.80;94.60;;;;;;6130807;23;20056;-89
2022/09/05 04:48:44;;;;;;;5.55;2.67;;;15.80;94.50;;;;;;6113524;23;20021;-87
2022/09/05 04:51:29;;;;;;;5.13;2.78;;;15.70;94.60;;;;;;6205956;22;20021;-89
2022/09/05 04:54:10;;;;;;;5.45;3.25;;;15.70;94.90;;;;;;6155468;23;20024;-87
2022/09/05 04:56:43;;;;;;;5.13;2.60;;;15.60;94.80;;;;;;6155263;22;20017;-87
2022/09/05 04:59:22;;;;;;;5.55;2.83;;;15.60;95.10;;;;;;6130411;23;20119;-88
2022/09/05 05:01:56;;;;;;;4.97;2.97;;;15.70;95.20;;;;;;6155100;23;20365;-87
2022/09/05 05:04:24;;;;;;;5.03;2.88;;;15.70;95.10;;;;;;6155381;23;20024;-87
2022/09/05 05:07:14;;;;;;;5.88;3.03;;;15.70;95.00;;;;;;6155678;22;20028;-89
2022/09/05 05:09:49;;;;;;;4.95;2.80;;;15.60;95.00;;;;;;6153919;23;20168;-88
2022/09/05 05:12:55;;;;;;;4.70;2.70;;;15.60;95.00;;;;;;6155589;22;20024;-90
2022/09/05 05:15:23;;;;;;;4.80;2.75;;;15.60;95.10;;;;;;6170499;22;20021;-87
2022/09/05 05:17:56;;;;;;;4.35;2.60;;;15.60;95.10;;;;;;6155078;22;20017;-88
2022/09/05 05:20:51;;;;;;;5.80;2.97;;;15.50;95.00;;;;;;6130455;23;20017;-90
2022/09/05 05:23:27;;;;;;;5.47;3.03;;;15.50;95.10;;;;;;6151617;22;20025;-87
2022/09/05 05:25:57;;;;;;;4.95;2.63;;;15.50;95.20;;;;;;6155554;22;20063;-90
2022/09/05 05:29:28;;;;;;;5.25;2.83;;;15.50;95.30;;;;;;6122719;22;20163;-93
2022/09/05 05:32:55;;;;;;;5.95;2.72;;;15.60;95.40;;;;;;6263792;22;20023;-93
2022/09/05 05:35:27;;;;;;;4.85;2.90;;;15.60;95.40;;;;;;6254497;22;20028;-94
2022/09/05 05:38:15;;;;;;;4.60;2.63;;;15.60;95.40;;;;;;6253661;22;20053;-87
2022/09/05 05:40:47;;;;;;;;;;;15.60;95.50;;;;;;6255368;22;20065;-87
2022/09/05 05:43:36;;;;;;;5.32;3.05;;;15.60;95.90;;;;;;6282046;22;19946;-89
2022/09/05 05:46:03;;;;;;;5.88;3.08;;;15.70;95.60;;;;;;6256920;22;20015;-89
2022/09/05 05:48:38;;;;;;;4.93;2.60;;;15.70;95.40;;;;;;6256069;22;20321;-91
2022/09/05 05:51:18;;;;;;;4.95;3.20;;;15.70;95.40;;;;;;6256217;22;20015;-89
2022/09/05 05:54:28;;;;;;;4.60;3.00;;;15.70;95.50;;;;;;6310660;22;20118;-90
2022/09/05 05:57:33;;;;;;;4.10;2.78;;;15.80;95.50;;;;;;6242856;22;20015;-88
2022/09/05 06:00:12;;;;;;;8.93;3.28;;;15.80;95.70;;;;;;6283703;22;20022;-90
2022/09/05 06:03:08;;;;;;;6.47;3.28;;;15.90;95.80;;;;;;6279167;22;20023;-87
2022/09/05 06:06:01;;;;;;;5.53;3.10;;;15.90;95.80;;;;;;6255013;22;20079;-90
2022/09/05 06:09:20;;;;;;;5.40;2.97;;;15.90;95.80;;;;;;6204365;22;20028;-89
2022/09/05 06:12:17;;;;;;;4.75;2.55;;;16.10;95.90;;;;;;6157190;23;20092;-88
2022/09/05 06:15:02;;;;;;;5.10;2.70;;;16.10;96.20;;;;;;6152251;23;20028;-90
2022/09/05 06:17:53;;;;;;;6.47;3.42;;;16.20;96.00;;;;;;6254572;22;20052;-87
2022/09/05 06:20:49;;;;;;;5.05;2.80;;;16.40;96.20;;;;;;6255889;22;20343;-89
2022/09/05 06:23:46;;;;;;;4.82;3.10;;;16.50;96.20;;;;;;6230595;22;20014;-89
2022/09/05 06:26:37;;;;;;;6.05;2.95;;;16.60;96.20;;;;;;6255287;22;20088;-91
2022/09/05 06:29:37;;;;;;;5.78;3.33;;;16.70;96.10;;;;;;6245012;22;20025;-87
2022/09/05 06:32:40;;;;;;;4.90;2.92;;;17.00;96.20;;;;;;6285579;22;20020;-86
2022/09/05 06:35:30;;;;;;;5.10;2.92;;;17.20;96.20;;;;;;6284524;22;20019;-86
2022/09/05 06:38:25;;;;;;;4.78;2.88;;;17.30;96.20;;;;;;6255981;22;20015;-87
2022/09/05 06:41:12;;;;;;;5.32;3.08;;;17.50;96.20;;;;;;6281407;22;20348;-86
2022/09/05 06:43:47;;;;;;;7.10;3.03;;;17.60;96.00;;;;;;6281612;22;20026;-87
2022/09/05 06:50:19;;;;;;;5.82;3.08;;;17.80;96.00;;;;;;6308806;22;20061;-87
2022/09/05 06:53:20;;;;;;;5.70;2.88;;;17.90;95.90;;;;;;6281166;22;20026;-88
2022/09/05 06:56:07;;;;;;;4.90;2.97;;;18.10;95.60;;;;;;6255900;22;20463;-88
2022/09/05 06:59:07;;;;;;;5.97;2.83;;;18.30;95.30;;;;;;6307489;22;20129;-89
2022/09/05 07:01:43;;;;;;;6.00;2.95;;;18.40;95.10;;;;;;6281711;22;20022;-88
2022/09/05 07:04:17;;;;;;;4.55;2.90;;;18.40;95.10;;;;;;6281367;22;20015;-87
2022/09/05 07:07:02;;;;;;;5.35;2.97;;;18.40;95.10;;;;;;6255854;22;20029;-86
2022/09/05 07:09:52;;;;;;;5.10;2.58;;;18.50;95.00;;;;;;6308669;22;20019;-87
2022/09/05 07:12:43;;;;;;;5.72;2.80;;;18.60;94.90;;;;;;6305792;22;20030;-87
2022/09/05 07:15:18;;;;;;;5.15;2.92;;;18.70;94.90;;;;;;6281012;22;20341;-88
2022/09/05 07:17:56;;;;;;;4.45;2.78;;;18.70;94.70;;;;;;6280457;22;20079;-87
2022/09/05 07:20:35;;;;;;;4.72;2.63;;;18.70;94.60;;;;;;6280464;22;20090;-87
2022/09/05 07:23:39;;;;;;;5.78;2.90;;;18.70;94.50;;;;;;6280013;22;20019;-87
2022/09/05 07:26:08;;;;;;;4.53;2.60;;;18.80;94.60;;;;;;6281074;22;20023;-87
2022/09/05 07:28:35;;;;;;;4.95;2.30;;;18.80;94.50;;;;;;6263696;22;20045;-86
2022/09/05 07:31:23;;;;;;;4.78;2.90;;;18.90;94.50;;;;;;6228528;23;20021;-87
2022/09/05 07:33:49;;;;;;;4.65;2.75;;;18.90;94.50;;;;;;6254895;22;20022;-87
2022/09/05 07:36:20;;;;;;;5.03;2.70;;;19.00;94.50;;;;;;6229499;22;20443;-87
2022/09/05 07:38:49;;;;;;;5.40;2.97;;;19.10;94.40;;;;;;6229702;22;20017;-86
2022/09/05 07:41:26;;;;;;;4.72;2.58;;;19.10;94.40;;;;;;6204778;23;20100;-89
2022/09/05 07:44:23;;;;;;;5.00;2.90;;;19.20;94.40;;;;;;6228796;22;20044;-86
2022/09/05 07:47:03;;;;;;;4.45;2.80;;;19.30;94.40;;;;;;6213062;22;20077;-86
2022/09/05 07:49:33;;;;;;;4.85;2.60;;;19.40;94.40;;;;;;6151939;23;20060;-88
2022/09/05 07:52:04;;;;;;;4.95;2.63;;;19.40;94.40;;;;;;6151612;23;20024;-87
2022/09/05 07:54:39;;;;;;;4.60;2.55;;;19.50;94.40;;;;;;6228930;23;20024;-88
2022/09/05 07:57:08;;;;;;;4.45;2.55;;;19.60;94.40;;;;;;6254175;22;20033;-87
2022/09/05 07:59:37;;;;;;;4.75;2.75;;;19.60;94.40;;;;;;6227332;23;20020;-86
2022/09/05 08:02:07;;;;;;;4.45;2.72;;;19.70;94.40;;;;;;6228777;22;20017;-86
2022/09/05 08:04:35;;;;;;;3.92;2.35;;;19.80;94.40;;;;;;6227933;23;20385;-86
2022/09/05 08:07:09;;;;;;;4.35;2.40;;;19.80;94.30;;;;;;6254605;22;20328;-86
2022/09/05 08:09:50;;;;;;;4.68;2.53;;;19.90;94.30;;;;;;6228072;22;20401;-84
2022/09/05 08:12:22;;;;;;;4.30;2.50;;;20.00;94.30;;;;;;6228629;22;20032;-86
2022/09/05 08:15:06;;;;;;;4.20;2.17;;;20.10;94.40;;;;;;6151421;23;20022;-85
2022/09/05 08:17:47;;;;;;;4.35;2.25;;;20.10;94.30;;;;;;6254558;22;20020;-85
2022/09/05 08:20:41;;;;;;;3.25;2.03;;;20.20;94.30;;;;;;6254538;22;20022;-85
2022/09/05 08:23:31;;;;;;;4.00;2.33;;;20.40;94.40;;;;;;6253098;22;20025;-85
2022/09/05 08:26:11;;;;;;;5.57;2.67;;;20.40;94.30;;;;;;6228088;23;20025;-86
2022/09/05 08:29:15;;;;;;;3.95;2.33;;;20.50;94.30;;;;;;6151511;22;20076;-84
2022/09/05 08:31:51;;;;;;;4.60;2.47;;;20.70;94.30;;;;;;6229658;22;20027;-85
2022/09/05 08:34:30;;;;;;;3.75;2.20;;;20.80;94.20;;;;;;6277293;22;20055;-86
2022/09/05 08:36:59;;;;;;;4.50;1.98;;;20.90;94.00;;;;;;6249710;22;20090;-85
2022/09/05 08:39:28;;;;;;;4.45;2.50;;;21.00;94.00;;;;;;6280018;22;20027;-86
2022/09/05 08:42:02;;;;;;;4.20;2.33;;;21.00;93.90;;;;;;6307469;22;20348;-85
2022/09/05 08:44:39;;;;;;;5.10;3.00;;;21.10;93.90;;;;;;6306332;22;20094;-85
2022/09/05 08:47:18;;;;;;;5.43;2.83;;;21.20;93.80;;;;;;6278699;22;20052;-86
2022/09/05 08:49:53;;;;;;;5.40;2.60;;;21.30;93.70;;;;;;6254146;22;20318;-85
2022/09/05 08:52:39;;;;;;;4.07;2.35;;;21.30;93.60;;;;;;6254612;22;20015;-86
2022/09/05 08:55:38;;;;;;;4.30;2.22;;;21.40;93.50;;;;;;6278129;22;20015;-86
2022/09/05 08:58:03;;;;;;;4.63;2.42;;;21.40;93.50;;;;;;6278110;22;20326;-85
2022/09/05 09:01:04;;;;;;;4.13;2.25;;;21.50;93.40;;;;;;6279389;22;20018;-85
2022/09/05 09:03:59;;;;;;;4.57;2.40;;;21.50;93.40;;;;;;6232795;22;20105;-86
2022/09/05 09:06:56;;;;;;;4.78;2.25;;;21.60;93.40;;;;;;6224423;22;20022;-87
2022/09/05 09:09:50;;;;;;;4.10;2.30;;;21.60;93.40;;;;;;6114464;23;20017;-86
2022/09/05 09:12:45;;;;;;;4.15;2.13;;;21.70;93.30;;;;;;6130282;23;20473;-85
2022/09/05 09:15:16;;;;;;;5.03;2.28;;;21.80;93.30;;;;;;6130103;22;20070;-86
2022/09/05 09:17:44;;;;;;;4.28;2.78;;;21.90;93.30;;;;;;6130612;23;20043;-86
2022/09/05 09:20:36;;;;;;;5.97;2.60;;;21.90;93.10;;;;;;6258381;22;20056;-86
2022/09/05 09:23:14;;;;;;;4.68;2.15;;;22.00;93.00;;;;;;6258774;22;20021;-86
2022/09/05 09:25:58;;;;;;;3.85;2.55;;;22.00;93.00;;;;;;6130330;23;20021;-85
2022/09/05 09:28:44;;;;;;;5.03;2.70;;;22.10;92.80;;;;;;6129985;23;20017;-86
2022/09/05 09:31:46;;;;;;;4.05;2.42;;;22.20;92.80;;;;;;6130024;23;20049;-85
2022/09/05 09:34:24;;;;;;;4.63;2.65;;;22.20;92.80;;;;;;6130102;23;20021;-86
2022/09/05 09:37:02;;;;;;;7.85;2.53;;;22.30;92.70;;;;;;6129891;22;20327;-86
2022/09/05 09:39:41;;;;;;;5.10;2.70;;;22.30;92.80;;;;;;6154962;22;20450;-88
2022/09/05 09:42:13;;;;;;;5.80;2.42;;;22.40;92.60;;;;;;6258743;22;20013;-86
2022/09/05 09:45:16;;;;;;;4.32;2.30;;;22.40;92.60;;;;;;6130030;22;20028;-87
2022/09/05 09:48:20;;;;;;;4.40;2.40;;;22.50;92.30;;;;;;6154568;22;20106;-88
2022/09/05 09:51:08;;;;;;;4.10;2.15;;;22.60;92.30;;;;;;6154385;22;20021;-87
2022/09/05 09:54:07;;;;;;;4.15;2.22;;;22.70;92.30;;;;;;6130230;23;20438;-86
2022/09/05 09:57:10;;;;;;;3.72;2.10;;;22.80;92.40;;;;;;6129748;23;20047;-86
2022/09/05 09:59:38;;;;;;;3.67;1.92;;;22.90;92.30;;;;;;6130186;23;20017;-86
2022/09/05 10:02:14;;;;;;;5.45;2.20;;;23.00;92.30;;;;;;6180804;22;20455;-86
2022/09/05 10:04:52;;;;;;;3.83;1.92;;;23.10;92.20;;;;;;6154356;22;20021;-86
2022/09/05 10:07:35;;;;;;;4.43;2.30;;;23.10;92.20;;;;;;6129955;23;20021;-85
2022/09/05 10:10:22;;;;;;;3.25;1.83;;;23.20;92.10;;;;;;6180533;22;20043;-86
2022/09/05 10:13:13;;;;;;;3.90;1.77;;;23.30;92.00;;;;;;6154124;22;20025;-86
2022/09/05 10:16:04;;;;;;;4.80;2.22;;;23.40;92.00;;;;;;6129702;23;20472;-86
2022/09/05 10:18:38;;;;;;;2.85;1.80;;;23.50;91.90;;;;;;6258470;22;20031;-86
2022/09/05 10:21:26;;;;;;;3.63;1.90;;;23.60;91.70;;;;;;6153938;22;20128;-86
2022/09/05 10:24:30;;;;;;;4.82;1.80;;;23.60;91.60;;;;;;6129717;23;20024;-86
2022/09/05 10:27:47;;;;;;;3.78;1.90;;;23.80;91.30;;;;;;6130959;23;20017;-85
2022/09/05 10:30:30;;;;;;;2.80;1.63;;;23.90;91.30;;;;;;6091142;23;20024;-85
2022/09/05 10:33:12;;;;;;;3.08;1.30;;;23.90;91.30;;;;;;6155069;22;20028;-86
2022/09/05 10:35:44;;;;;;;3.42;1.40;;;24.00;91.30;;;;;;6130987;23;20400;-87
2022/09/05 10:38:31;;;;;;;3.80;2.10;;;24.10;91.20;;;;;;6155337;22;20082;-86
2022/09/05 10:41:09;;;;;;;4.07;2.13;;;24.20;90.90;;;;;;6155706;22;20509;-86
2022/09/05 10:43:49;;;;;;;3.50;2.13;;;24.40;90.80;;;;;;6154780;22;20023;-86
2022/09/05 10:46:20;;;;;;;3.85;1.90;;;24.40;90.80;;;;;;6131325;23;20029;-86
2022/09/05 10:48:47;;;;;;;3.30;1.63;;;24.60;90.70;;;;;;6131125;23;20024;-87
2022/09/05 10:51:42;;;;;;;3.53;2.00;;;24.70;90.70;;;;;;6131155;23;20151;-85
2022/09/05 10:54:25;;;;;;;3.63;1.95;;;24.90;90.40;;;;;;6131310;23;20017;-86
2022/09/05 10:57:03;;;;;;;3.97;1.80;;;25.10;90.10;;;;;;6155286;22;20028;-87
2022/09/05 10:59:46;;;;;;;4.85;1.67;;;25.20;90.00;;;;;;6130952;23;20077;-87
2022/09/05 11:02:25;;;;;;;2.88;1.40;;;25.30;89.70;;;;;;6155138;23;20017;-86
2022/09/05 11:04:54;;;;;;;3.22;1.60;;;25.40;89.70;;;;;;6130908;23;20450;-87
2022/09/05 11:07:29;;;;;;;2.40;1.27;;;25.60;89.20;;;;;;6130626;23;20151;-89
2022/09/05 11:10:09;;;;;;;2.63;1.35;;;25.60;89.50;;;;;;6130445;22;20025;-87
2022/09/05 11:12:57;;;;;;;3.17;1.50;;;25.80;88.20;;;;;;6155661;23;20058;-90
2022/09/05 11:15:28;;;;;;;2.67;1.20;;;25.90;86.60;;;;;;6130919;22;20028;-87
2022/09/05 11:18:03;;;;;;;2.78;1.30;;;25.90;87.10;;;;;;6130687;22;20362;-87
2022/09/05 11:21:03;;;;;;;3.17;1.58;;;26.00;87.30;;;;;;6131050;23;20025;-87
2022/09/05 11:23:37;;;;;;;3.40;1.45;;;26.10;86.30;;;;;;6123757;23;20024;-86
2022/09/05 11:26:06;;;;;;;2.42;1.33;;;26.20;86.90;;;;;;6131177;23;20024;-87
2022/09/05 11:29:00;;;;;;;3.08;1.45;;;26.40;86.30;;;;;;6155461;22;20087;-86
2022/09/05 11:31:59;;;;;;;2.53;1.10;;;26.50;85.60;;;;;;6155568;23;20355;-88
2022/09/05 11:34:52;;;;;;;3.17;1.40;;;26.50;84.90;;;;;;6129938;23;20013;-86
2022/09/05 11:37:26;;;;;;;2.60;1.30;;;26.70;84.50;;;;;;6155920;22;20090;-87
2022/09/05 11:40:16;;;;;;;2.30;1.25;;;26.70;84.90;;;;;;6130853;23;20017;-89
2022/09/05 11:42:57;;;;;;;2.88;1.40;;;26.60;83.90;;;;;;6131064;23;20029;-87
2022/09/05 11:46:07;;;;;;;2.97;1.50;;;26.70;83.80;;;;;;6130887;23;20024;-88
2022/09/05 11:48:38;;;;;;;2.83;1.30;;;26.70;83.50;;;;;;6130994;22;20039;-86
2022/09/05 11:51:26;;;;;;;2.45;1.20;;;26.90;83.60;;;;;;6155330;22;20021;-88
2022/09/05 11:54:22;;;;;;;2.83;1.13;;;27.00;83.60;;;;;;6130943;22;20028;-87
2022/09/05 11:57:22;;;;;;;2.53;1.48;;;27.10;82.90;;;;;;6130916;23;20017;-88
2022/09/05 12:00:03;;;;;;;3.20;1.58;;;27.20;82.30;;;;;;6130741;23;20021;-86
2022/09/05 12:02:40;;;;;;;2.75;1.17;;;27.30;82.30;;;;;;6130556;22;20053;-86
2022/09/05 12:05:24;;;;;;;;;;;27.50;82.30;;;;;;6131652;23;20051;-87
2022/09/05 12:08:16;;;;;;;2.03;1.30;;;27.60;81.60;;;;;;6130413;23;19927;-90
2022/09/05 12:11:05;;;;;;;2.80;1.60;;;27.60;81.80;;;;;;6131525;23;20018;-89
2022/09/05 12:13:47;;;;;;;2.65;1.38;;;27.60;81.20;;;;;;6131273;22;20078;-87
2022/09/05 12:16:49;;;;;;;3.17;1.63;;;27.50;81.00;;;;;;6155266;22;20457;-86
2022/09/05 12:19:17;;;;;;;3.50;1.80;;;27.50;81.00;;;;;;6131146;23;20017;-88
2022/09/05 12:22:17;;;;;;;2.78;1.60;;;27.60;80.80;;;;;;6131048;23;20025;-89
2022/09/05 12:25:12;;;;;;;2.92;1.42;;;27.70;80.10;;;;;;6130750;23;20092;-87
2022/09/05 12:27:38;;;;;;;2.10;1.20;;;27.80;79.80;;;;;;6259653;22;20009;-88
2022/09/05 12:30:10;;;;;;;2.67;1.60;;;27.90;80.30;;;;;;6130285;22;20024;-88
2022/09/05 12:32:57;;;;;;;2.80;1.38;;;28.00;79.90;;;;;;6131027;23;20078;-89
2022/09/05 12:35:40;;;;;;;2.38;1.27;;;28.10;78.90;;;;;;6130534;22;20019;-87
2022/09/05 12:38:21;;;;;;;2.40;1.33;;;28.20;79.50;;;;;;6130647;23;20013;-87
2022/09/05 12:41:04;;;;;;;2.47;1.48;;;28.30;79.10;;;;;;6181406;22;20039;-87
2022/09/05 12:43:30;;;;;;;2.47;1.20;;;28.40;78.80;;;;;;6130580;23;20029;-87
2022/09/05 12:46:00;;;;;;;2.70;1.30;;;28.40;78.90;;;;;;6155035;22;20024;-87
2022/09/05 12:48:32;;;;;;;4.00;1.52;;;28.40;78.50;;;;;;6154382;22;20028;-87
2022/09/05 12:51:01;;;;;;;2.25;1.38;;;28.40;78.10;;;;;;6155218;22;20350;-87
2022/09/05 12:53:50;;;;;;;2.30;1.23;;;28.40;77.90;;;;;;6155756;22;20027;-87
2022/09/05 12:56:21;;;;;;;2.15;1.20;;;28.40;77.90;;;;;;6130391;22;20112;-88
2022/09/05 12:58:50;;;;;;;2.70;1.50;;;28.40;77.90;;;;;;6155086;22;20446;-87
2022/09/05 13:01:26;;;;;;;2.20;1.35;;;28.50;77.90;;;;;;6181287;22;20477;-87
2022/09/05 13:04:23;;;;;;;2.70;1.58;;;28.50;77.70;;;;;;6181381;22;20078;-87
2022/09/05 13:07:13;;;;;;;2.83;1.50;;;28.50;77.00;;;;;;6153078;23;20028;-87
2022/09/05 13:09:55;;;;;;;3.13;1.40;;;28.50;77.60;;;;;;6258788;22;20052;-87
2022/09/05 13:12:29;;;;;;;2.50;1.50;;;28.50;77.40;;;;;;6130305;22;20024;-87
2022/09/05 13:15:35;;;;;;;3.15;1.27;;;28.50;77.30;;;;;;6155076;22;20078;-87
2022/09/05 13:18:17;;;;;;;2.70;1.60;;;28.50;76.50;;;;;;6154288;22;20059;-87
2022/09/05 13:20:50;;;;;;;2.28;1.30;;;28.60;75.90;;;;;;6130436;23;20050;-87
2022/09/05 13:23:30;;;;;;;2.30;1.23;;;28.60;76.20;;;;;;6130390;23;20028;-86
2022/09/05 13:26:02;;;;;;;2.83;1.50;;;28.70;76.20;;;;;;6258862;22;20031;-87
2022/09/05 13:28:49;;;;;;;4.40;1.42;;;28.70;76.20;;;;;;6130348;23;20021;-87
2022/09/05 13:31:39;;;;;;;2.45;1.40;;;28.80;75.70;;;;;;6155016;22;20017;-86
2022/09/05 13:34:13;;;;;;;3.25;1.45;;;28.80;75.30;;;;;;6130346;23;20462;-88
2022/09/05 13:36:49;;;;;;;2.83;1.52;;;28.80;75.60;;;;;;6130267;22;20443;-87
2022/09/05 13:39:21;;;;;;;2.53;1.25;;;28.80;75.40;;;;;;6155111;22;20028;-87
2022/09/05 13:41:58;;;;;;;2.78;1.42;;;28.80;74.60;;;;;;6155243;23;20024;-88
2022/09/05 13:44:26;;;;;;;2.17;1.23;;;28.70;74.30;;;;;;6155420;22;20503;-87
2022/09/05 13:47:00;;;;;;;2.50;1.40;;;28.70;74.50;;;;;;6130319;23;20028;-87
2022/09/05 13:49:35;;;;;;;3.75;1.30;;;28.70;74.50;;;;;;6130065;23;20017;-87
2022/09/05 13:52:33;;;;;;;2.85;1.48;;;28.80;74.40;;;;;;6180745;22;20021;-87
2022/09/05 13:55:03;;;;;;;2.17;1.10;;;28.70;73.20;;;;;;6154898;22;20017;-87
2022/09/05 13:57:38;;;;;;;2.15;1.10;;;28.70;73.60;;;;;;6129860;22;20036;-87
2022/09/05 14:00:14;;;;;;;1.95;1.15;;;28.70;74.00;;;;;;6130235;22;20096;-87
2022/09/05 14:03:07;;;;;;;2.55;1.20;;;28.60;74.00;;;;;;6131705;23;20388;-87
2022/09/05 14:05:57;;;;;;;3.13;1.33;;;28.60;73.30;;;;;;6131549;22;20017;-88
2022/09/05 14:08:32;;;;;;;2.67;1.35;;;28.60;72.20;;;;;;6156374;22;20056;-87
2022/09/05 14:11:43;;;;;;;2.33;1.30;;;28.50;72.70;;;;;;6131502;22;20021;-87
2022/09/05 14:14:13;;;;;;;2.72;1.30;;;28.50;73.00;;;;;;6126896;22;20028;-87
2022/09/05 14:16:46;;;;;;;2.65;1.30;;;28.50;73.00;;;;;;6155911;22;20021;-87
2022/09/05 14:22:08;;;;;;;2.63;1.40;;;28.40;73.40;;;;;;6155968;22;20052;-88
2022/09/05 14:24:44;;;;;;;2.72;1.40;;;28.30;73.60;;;;;;6130975;23;20017;-87